Time;durP1;ratioP1;P1;durP2;ratioP2;P2;SDS_P1;SDS_P2;PMS_P1;PMS_P2;Temp;Humidity;BMP_temperature;BMP_pressure;BME280_temperature;BME280_humidity;BME280_pressure;Samples;Min_cycle;Max_cycle;Signal;HPM_P1;HPM_P2
2023/07/24 00:02:20;;;;;;;10.82;7.10;;;28.80;24.10;;;;;;20918213;28;20561;-59
2023/07/24 00:12:21;;;;;;;11.52;7.82;;;28.60;24.20;;;;;;20917838;28;20037;-59
2023/07/24 00:22:22;;;;;;;10.73;8.23;;;28.30;25.50;;;;;;20916218;28;20048;-58
2023/07/24 00:32:23;;;;;;;9.43;7.65;;;28.10;25.90;;;;;;20916151;28;20041;-58
2023/07/24 00:42:23;;;;;;;;;;;28.00;26.10;;;;;;20914661;28;20041;-59
2023/07/24 00:52:25;;;;;;;9.23;7.97;;;27.50;27.50;;;;;;20914225;28;19921;-58
2023/07/24 01:02:26;;;;;;;12.60;7.13;;;27.30;27.00;;;;;;20913073;28;20041;-59
2023/07/24 01:12:45;;;;;;;8.65;6.32;;;27.40;25.70;;;;;;20913795;28;20116;-58
2023/07/24 01:23:27;;;;;;;10.40;7.85;;;27.40;25.30;;;;;;20912544;28;20071;-58
2023/07/24 01:33:28;;;;;;;10.32;7.57;;;27.30;26.10;;;;;;20913161;28;20424;-59
2023/07/24 01:43:31;;;;;;;9.48;6.70;;;27.10;26.80;;;;;;20911122;28;20084;-60
2023/07/24 01:53:32;;;;;;;8.10;6.43;;;27.20;26.00;;;;;;20912055;28;20482;-58
2023/07/24 02:03:33;;;;;;;10.70;7.03;;;27.00;26.10;;;;;;20916823;28;20130;-57
2023/07/24 02:13:34;;;;;;;6.93;6.20;;;26.90;26.40;;;;;;20926960;28;20051;-59
2023/07/24 02:23:35;;;;;;;10.23;6.37;;;26.60;26.40;;;;;;20925631;28;20056;-59
2023/07/24 02:33:35;;;;;;;10.73;6.40;;;26.70;26.30;;;;;;20925688;28;20049;-59
2023/07/24 02:43:36;;;;;;;8.63;6.50;;;26.60;26.70;;;;;;20923658;28;20124;-61
2023/07/24 02:53:38;;;;;;;10.38;6.50;;;26.40;27.30;;;;;;20922829;28;20053;-59
2023/07/24 03:03:39;;;;;;;11.23;7.93;;;26.20;27.70;;;;;;20921843;28;20096;-59
2023/07/24 03:13:40;;;;;;;11.13;7.90;;;26.10;27.90;;;;;;20922387;28;20559;-58
2023/07/24 03:23:41;;;;;;;7.32;5.80;;;25.90;28.30;;;;;;20921678;28;20068;-59
2023/07/24 03:33:42;;;;;;;6.27;5.57;;;25.90;28.20;;;;;;20921133;28;20049;-59
2023/07/24 03:43:43;;;;;;;10.83;6.67;;;25.90;28.80;;;;;;20920434;28;20049;-58
2023/07/24 03:53:43;;;;;;;7.67;5.80;;;25.70;28.70;;;;;;20919373;28;20090;-58
2023/07/24 04:03:45;;;;;;;9.00;7.23;;;25.60;28.60;;;;;;20918439;28;20042;-58
2023/07/24 04:13:45;;;;;;;7.90;5.27;;;25.40;28.80;;;;;;20916639;28;20071;-59
2023/07/24 04:23:46;;;;;;;10.57;6.20;;;25.10;29.30;;;;;;20914526;28;20140;-58
2023/07/24 04:33:47;;;;;;;10.43;6.83;;;25.10;29.10;;;;;;20916301;28;20055;-58
2023/07/24 04:43:48;;;;;;;10.67;7.03;;;25.10;29.50;;;;;;20915047;28;20072;-58
2023/07/24 04:53:48;;;;;;;13.77;9.67;;;25.10;30.60;;;;;;20915061;28;20045;-58
2023/07/24 05:03:49;;;;;;;8.00;6.30;;;24.70;31.90;;;;;;20914084;28;20573;-59
2023/07/24 05:13:50;;;;;;;10.37;6.83;;;24.70;32.10;;;;;;20913841;28;20091;-58
2023/07/24 05:23:50;;;;;;;9.93;7.77;;;24.60;32.80;;;;;;20912427;28;20053;-60
2023/07/24 05:33:51;;;;;;;9.73;6.43;;;24.40;33.10;;;;;;20912545;28;20049;-58
2023/07/24 05:43:52;;;;;;;12.00;7.70;;;24.50;33.30;;;;;;20928251;28;20049;-60
2023/07/24 05:53:53;;;;;;;13.30;7.80;;;24.60;34.10;;;;;;20927060;28;20072;-57
2023/07/24 06:03:53;;;;;;;14.77;8.07;;;24.60;34.30;;;;;;20927459;28;20497;-58
2023/07/24 06:13:54;;;;;;;8.93;6.32;;;24.50;34.20;;;;;;20926972;28;20094;-57
2023/07/24 06:23:56;;;;;;;12.18;6.65;;;24.60;33.50;;;;;;20925052;28;20529;-58
2023/07/24 06:33:56;;;;;;;12.40;7.63;;;24.70;33.90;;;;;;20923678;28;20047;-58
2023/07/24 06:43:57;;;;;;;13.32;7.95;;;24.70;34.90;;;;;;20924387;28;20530;-59
2023/07/24 06:53:58;;;;;;;12.37;7.47;;;24.80;35.40;;;;;;20921574;28;20209;-59
2023/07/24 07:03:59;;;;;;;9.03;6.00;;;25.10;35.70;;;;;;20922322;28;20577;-59
2023/07/24 07:13:59;;;;;;;9.73;6.30;;;26.00;35.00;;;;;;20921765;28;20504;-59
2023/07/24 07:24:00;;;;;;;10.77;6.20;;;26.60;34.10;;;;;;20920387;28;20053;-58
2023/07/24 07:34:01;;;;;;;17.80;7.40;;;27.40;32.80;;;;;;20919780;28;20080;-58
2023/07/24 07:44:02;;;;;;;11.52;6.75;;;28.00;31.60;;;;;;20919929;28;20049;-59
2023/07/24 07:54:02;;;;;;;;;;;28.40;30.70;;;;;;20919440;28;20072;-58
2023/07/24 08:04:22;;;;;;;10.50;6.28;;;28.70;30.30;;;;;;20917266;28;20370;-59
2023/07/24 08:14:22;;;;;;;11.57;6.82;;;28.80;29.20;;;;;;20917512;28;20093;-59
2023/07/24 08:24:23;;;;;;;12.65;7.03;;;29.10;28.80;;;;;;20915227;28;20057;-58
2023/07/24 08:34:24;;;;;;;8.10;6.32;;;29.00;28.80;;;;;;20914472;28;20523;-58
2023/07/24 08:44:27;;;;;;;8.88;6.35;;;28.90;29.00;;;;;;20914934;28;20537;-59
2023/07/24 08:54:30;;;;;;;6.93;6.22;;;29.30;28.20;;;;;;20913378;28;20044;-60
2023/07/24 09:04:31;;;;;;;9.82;6.88;;;29.50;27.10;;;;;;20913997;28;20052;-58
2023/07/24 09:14:31;;;;;;;10.52;6.88;;;29.60;27.20;;;;;;20910760;28;20048;-60
2023/07/24 09:24:32;;;;;;;8.02;6.65;;;29.50;27.40;;;;;;20911784;28;20490;-59
2023/07/24 09:34:33;;;;;;;7.53;6.35;;;29.60;27.10;;;;;;20912308;28;20076;-58
2023/07/24 09:44:34;;;;;;;8.45;6.43;;;29.90;26.50;;;;;;20910852;28;20053;-58
2023/07/24 09:54:41;;;;;;;10.35;7.38;;;30.00;25.90;;;;;;20910377;28;20401;-59
2023/07/24 10:04:42;;;;;;;7.55;5.60;;;30.20;26.10;;;;;;20910641;28;20364;-58
2023/07/24 10:14:44;;;;;;;12.07;6.00;;;30.40;25.60;;;;;;20910056;28;20068;-58
2023/07/24 10:24:46;;;;;;;8.35;5.15;;;30.40;25.70;;;;;;20914975;28;20067;-59
2023/07/24 10:34:59;;;;;;;8.25;5.50;;;30.60;25.10;;;;;;20923824;28;20048;-57
2023/07/24 10:45:05;;;;;;;9.60;5.70;;;30.60;25.80;;;;;;20924235;28;20059;-59
2023/07/24 10:55:06;;;;;;;7.28;5.60;;;30.60;25.40;;;;;;20922471;28;20052;-59
2023/07/24 11:05:07;;;;;;;7.25;6.20;;;30.80;24.30;;;;;;20923128;28;20102;-60
2023/07/24 11:15:08;;;;;;;8.10;6.22;;;31.00;24.60;;;;;;20922132;28;20135;-59
2023/07/24 11:25:11;;;;;;;8.38;5.95;;;31.10;24.90;;;;;;20920504;28;20063;-60
2023/07/24 11:35:12;;;;;;;10.77;6.60;;;31.10;24.60;;;;;;20919417;28;20094;-60
2023/07/24 11:45:13;;;;;;;7.72;6.32;;;31.20;24.10;;;;;;20920047;28;20124;-59
2023/07/24 11:55:19;;;;;;;9.07;6.45;;;31.20;24.30;;;;;;20919326;28;20588;-59
2023/07/24 12:05:21;;;;;;;7.35;6.00;;;31.40;24.70;;;;;;20918421;28;20076;-58
2023/07/24 12:15:22;;;;;;;10.18;6.18;;;31.60;24.60;;;;;;20917315;28;20041;-59
2023/07/24 12:25:23;;;;;;;7.38;5.85;;;31.70;24.70;;;;;;20916340;28;20064;-59
2023/07/24 12:35:24;;;;;;;6.82;6.13;;;31.70;25.40;;;;;;20916281;28;20040;-60
2023/07/24 12:45:25;;;;;;;7.00;5.65;;;31.70;25.70;;;;;;20913660;28;20094;-60
2023/07/24 12:55:26;;;;;;;6.75;6.05;;;31.90;25.60;;;;;;20914573;28;20514;-58
2023/07/24 13:05:27;;;;;;;6.55;5.82;;;32.00;25.70;;;;;;20912509;28;20178;-59
2023/07/24 13:15:29;;;;;;;6.20;5.60;;;32.20;25.60;;;;;;20913592;28;20083;-58
2023/07/24 13:25:30;;;;;;;7.80;6.72;;;32.20;25.10;;;;;;20912741;28;20518;-58
2023/07/24 13:35:30;;;;;;;10.48;6.38;;;32.50;24.80;;;;;;20913261;28;20406;-60
2023/07/24 13:45:31;;;;;;;6.80;6.10;;;32.70;25.20;;;;;;20912792;28;20079;-59
2023/07/24 13:55:32;;;;;;;8.25;5.72;;;32.60;25.60;;;;;;20908353;28;20124;-61
2023/07/24 14:05:36;;;;;;;7.63;5.65;;;32.70;25.50;;;;;;20926063;28;20045;-57
2023/07/24 14:15:37;;;;;;;7.53;5.60;;;32.70;25.60;;;;;;20926902;28;20056;-60
2023/07/24 14:25:38;;;;;;;6.20;5.60;;;32.60;25.30;;;;;;20925763;28;20061;-59
2023/07/24 14:35:38;;;;;;;9.32;6.10;;;32.80;25.30;;;;;;20924315;28;20044;-59
2023/07/24 14:45:39;;;;;;;6.30;5.70;;;32.60;24.90;;;;;;20924575;28;20486;-59
2023/07/24 14:55:40;;;;;;;8.70;6.57;;;32.60;25.70;;;;;;20921727;28;20048;-59
2023/07/24 15:05:41;;;;;;;8.30;5.28;;;32.90;26.00;;;;;;20922912;28;20051;-59
2023/07/24 15:15:41;;;;;;;6.68;5.97;;;33.00;26.40;;;;;;20921816;28;20041;-59
2023/07/24 15:25:42;;;;;;;6.22;4.70;;;32.70;26.60;;;;;;20921485;28;20049;-59
2023/07/24 15:35:43;;;;;;;4.82;3.20;;;32.60;27.70;;;;;;20919471;28;20045;-59
2023/07/24 15:45:44;;;;;;;3.90;3.45;;;32.20;28.70;;;;;;20920293;28;20123;-59
2023/07/24 15:55:44;;;;;;;4.57;3.13;;;32.10;28.80;;;;;;20919004;28;20052;-59
2023/07/24 16:05:45;;;;;;;11.50;3.90;;;32.10;27.80;;;;;;20918107;28;20051;-59
2023/07/24 16:15:46;;;;;;;4.75;3.17;;;32.00;27.30;;;;;;20916116;28;20053;-59
2023/07/24 16:25:47;;;;;;;3.47;2.75;;;31.60;27.70;;;;;;20915885;28;20591;-60
2023/07/24 16:35:48;;;;;;;5.43;3.38;;;31.60;27.50;;;;;;20915844;28;20494;-59
2023/07/24 16:45:51;;;;;;;4.82;3.25;;;31.60;27.30;;;;;;20915414;28;20073;-58
2023/07/24 16:55:51;;;;;;;5.65;2.90;;;31.40;27.20;;;;;;20913488;28;20486;-59
2023/07/24 17:05:52;;;;;;;10.15;3.03;;;31.20;27.30;;;;;;20913581;28;20059;-59
2023/07/24 17:15:53;;;;;;;4.70;3.38;;;31.10;27.90;;;;;;20912462;28;20124;-59
2023/07/24 17:25:54;;;;;;;12.95;3.88;;;30.90;28.10;;;;;;20913255;28;20414;-58
2023/07/24 17:35:54;;;;;;;5.75;2.85;;;30.80;28.50;;;;;;20921787;28;20056;-60
2023/07/24 17:45:55;;;;;;;6.78;2.70;;;30.60;28.20;;;;;;20928819;28;20094;-58
2023/07/24 17:55:56;;;;;;;4.68;3.90;;;30.40;28.00;;;;;;20927346;28;20048;-60
2023/07/24 18:05:59;;;;;;;4.07;3.38;;;30.30;27.60;;;;;;20925403;28;20122;-60
2023/07/24 18:15:59;;;;;;;3.67;2.70;;;30.20;27.10;;;;;;20926284;28;20508;-60
2023/07/24 18:26:00;;;;;;;2.97;2.35;;;30.10;26.90;;;;;;20924482;28;20080;-59
2023/07/24 18:36:01;;;;;;;3.85;2.72;;;29.90;26.60;;;;;;20924812;28;20112;-58
2023/07/24 18:46:02;;;;;;;4.20;2.88;;;29.80;26.70;;;;;;20923211;28;20044;-58
2023/07/24 18:56:03;;;;;;;4.00;3.28;;;29.60;26.90;;;;;;20923698;28;20130;-59
2023/07/24 19:06:08;;;;;;;6.88;3.47;;;29.60;26.30;;;;;;20922843;28;20088;-59
2023/07/24 19:16:09;;;;;;;5.93;4.07;;;29.40;26.50;;;;;;20921678;28;20072;-60
2023/07/24 19:26:11;;;;;;;5.22;3.80;;;29.20;25.80;;;;;;20919910;28;20060;-60
2023/07/24 19:36:12;;;;;;;6.60;5.00;;;29.00;26.10;;;;;;20918144;28;20037;-59
2023/07/24 19:46:13;;;;;;;5.50;3.83;;;28.70;27.10;;;;;;20919931;28;20075;-58
2023/07/24 19:56:13;;;;;;;3.58;3.00;;;28.50;26.90;;;;;;20919170;28;20045;-59
2023/07/24 20:06:14;;;;;;;5.38;3.20;;;28.40;26.80;;;;;;20917271;28;20094;-58
2023/07/24 20:16:18;;;;;;;;;;;28.20;27.10;;;;;;20918069;28;20561;-59
2023/07/24 20:26:20;;;;;;;4.55;2.50;;;28.00;27.90;;;;;;20917087;28;19920;-60
2023/07/24 20:36:20;;;;;;;4.65;2.92;;;28.00;28.20;;;;;;20916472;28;20037;-59
2023/07/24 20:46:21;;;;;;;;;;;27.90;28.70;;;;;;20916213;28;20460;-60
2023/07/24 20:56:23;;;;;;;3.47;2.42;;;27.70;29.00;;;;;;20914744;28;19921;-59
2023/07/24 21:06:24;;;;;;;4.28;3.15;;;27.60;29.20;;;;;;20913613;28;20047;-62
2023/07/24 21:16:24;;;;;;;6.70;3.50;;;27.50;29.50;;;;;;20913454;28;20041;-60
2023/07/24 21:26:25;;;;;;;3.50;2.20;;;27.40;29.30;;;;;;20912072;28;20463;-59
2023/07/24 21:36:26;;;;;;;7.30;3.77;;;27.20;29.70;;;;;;20912473;28;20048;-59
2023/07/24 21:46:26;;;;;;;7.37;2.60;;;27.10;29.90;;;;;;20912104;28;20076;-60
2023/07/24 21:56:27;;;;;;;5.00;2.60;;;27.10;29.40;;;;;;20910335;28;20096;-59
2023/07/24 22:06:28;;;;;;;2.83;2.17;;;26.80;29.90;;;;;;20911164;28;20047;-59
2023/07/24 22:16:29;;;;;;;4.83;2.23;;;26.70;29.70;;;;;;20911265;28;20045;-58
2023/07/24 22:26:30;;;;;;;3.23;2.13;;;26.50;30.10;;;;;;20923925;28;20068;-59
2023/07/24 22:36:31;;;;;;;4.25;2.78;;;26.40;30.00;;;;;;20925516;28;20045;-60
2023/07/24 22:46:31;;;;;;;4.40;2.93;;;26.30;30.60;;;;;;20925106;28;20049;-59
2023/07/24 22:56:32;;;;;;;2.93;2.50;;;26.20;30.60;;;;;;20923058;28;20048;-59
2023/07/24 23:06:33;;;;;;;3.20;2.47;;;26.00;30.40;;;;;;20923508;28;20116;-60
2023/07/24 23:16:34;;;;;;;3.77;2.57;;;25.90;30.80;;;;;;20922725;28;20053;-61
2023/07/24 23:26:34;;;;;;;7.60;2.60;;;25.80;30.70;;;;;;20922010;28;20053;-59
2023/07/24 23:36:35;;;;;;;3.60;2.03;;;25.70;31.10;;;;;;20919854;28;20052;-58
2023/07/24 23:46:38;;;;;;;4.40;2.53;;;25.60;31.30;;;;;;20921288;28;20132;-59
2023/07/24 23:56:39;;;;;;;6.30;3.22;;;25.40;32.00;;;;;;20919083;28;20049;-60
